createdAt,value
2018-06-05T00:02:23.769Z,99693.01
2018-06-05T00:04:53.471Z,99691.34
2018-06-05T00:07:23.217Z,99690.48
2018-06-05T00:09:52.907Z,99695.31
2018-06-05T00:12:22.576Z,99696.98
2018-06-05T00:14:52.277Z,99686.59
2018-06-05T00:17:22.080Z,99689.39
2018-06-05T00:19:51.783Z,99684.98
2018-06-05T00:22:21.507Z,99691.16
2018-06-05T00:24:51.180Z,99691.16
2018-06-05T00:27:20.830Z,99692.73
2018-06-05T00:29:50.549Z,99689.80
2018-06-05T00:32:20.219Z,99695.48
2018-06-05T00:34:49.890Z,99695.56
2018-06-05T00:37:19.615Z,99703.06
2018-06-05T00:39:49.268Z,99696.58
2018-06-05T00:42:18.952Z,99696.19
2018-06-05T00:44:48.656Z,99701.29
2018-06-05T00:47:18.322Z,99700.69
2018-06-05T00:49:48.003Z,99701.02
2018-06-05T00:52:17.702Z,99696.95
2018-06-05T00:54:47.351Z,99699.86
2018-06-05T00:57:17.017Z,99699.56
2018-06-05T00:59:46.691Z,99702.60
2018-06-05T01:02:16.632Z,99705.81
2018-06-05T01:04:46.359Z,99700.22
2018-06-05T01:07:16.101Z,99699.71
2018-06-05T01:09:45.771Z,99700.31
2018-06-05T01:12:15.488Z,99692.52
2018-06-05T01:14:45.142Z,99695.34
2018-06-05T01:17:14.811Z,99698.36
2018-06-05T01:19:44.516Z,99697.41
2018-06-05T01:22:14.233Z,99697.24
2018-06-05T01:24:43.892Z,99688.91
2018-06-05T01:27:13.871Z,99691.09
2018-06-05T01:29:43.520Z,99688.91
2018-06-05T01:32:13.224Z,99692.55
2018-06-05T01:34:42.884Z,99692.46
2018-06-05T01:37:12.543Z,99701.20
2018-06-05T01:39:42.243Z,99690.38
2018-06-05T01:42:11.900Z,99687.77
2018-06-05T01:44:41.546Z,99685.62
2018-06-05T01:47:11.235Z,99692.38
2018-06-05T01:49:40.873Z,99694.02
2018-06-05T01:52:10.732Z,99697.47
2018-06-05T01:54:40.453Z,99698.61
2018-06-05T01:57:10.104Z,99697.05
2018-06-05T01:59:39.752Z,99694.23
2018-06-05T02:02:09.447Z,99694.34
2018-06-05T02:04:39.107Z,99697.36
2018-06-05T02:07:08.883Z,99694.34
2018-06-05T02:09:38.592Z,99690.08
2018-06-05T02:12:08.206Z,99691.39
2018-06-05T02:14:37.854Z,99693.05
2018-06-05T02:17:07.591Z,99692.30
2018-06-05T02:19:37.235Z,99690.63
2018-06-05T02:22:07.523Z,99688.66
2018-06-05T02:24:37.178Z,99691.27
2018-06-05T02:27:06.951Z,99686.78
2018-06-05T02:29:36.595Z,99686.89
2018-06-05T02:32:06.320Z,99684.30
2018-06-05T02:34:35.992Z,99678.25
2018-06-05T02:37:05.680Z,99679.00
2018-06-05T02:39:35.393Z,99685.52
2018-06-05T02:42:05.080Z,99681.25
2018-06-05T02:44:34.731Z,99686.98
2018-06-05T02:47:04.457Z,99684.38
2018-06-05T02:49:34.104Z,99674.08
2018-06-05T02:52:03.791Z,99679.70
2018-06-05T02:54:33.476Z,99680.55
2018-06-05T02:57:03.140Z,99682.92
2018-06-05T02:59:32.821Z,99677.95
2018-06-05T03:02:02.535Z,99684.38
2018-06-05T03:04:32.197Z,99681.70
2018-06-05T03:07:01.908Z,99680.02
2018-06-05T03:09:31.576Z,99684.72
2018-06-05T03:12:01.311Z,99691.97
2018-06-05T03:14:30.968Z,99687.81
2018-06-05T03:17:00.633Z,99692.39
2018-06-05T03:19:30.371Z,99694.58
2018-06-05T03:21:59.984Z,99703.33
2018-06-05T03:24:29.647Z,99703.85
2018-06-05T03:26:59.320Z,99694.39
2018-06-05T03:29:28.992Z,99701.73
2018-06-05T03:31:58.685Z,99702.16
2018-06-05T03:34:28.387Z,99705.89
2018-06-05T03:36:58.069Z,99705.88
2018-06-05T03:39:27.741Z,99714.28
2018-06-05T03:41:57.504Z,99717.14
2018-06-05T03:44:27.196Z,99722.25
2018-06-05T03:46:56.886Z,99717.34
2018-06-05T03:49:26.587Z,99723.59
2018-06-05T03:51:56.224Z,99718.79
2018-06-05T03:54:25.912Z,99714.15
2018-06-05T03:56:55.578Z,99717.02
2018-06-05T03:59:25.301Z,99719.91
2018-06-05T04:01:54.963Z,99728.80
2018-06-05T04:04:24.746Z,99734.73
2018-06-05T04:06:54.408Z,99741.80
2018-06-05T04:09:24.109Z,99741.70
2018-06-05T04:11:53.766Z,99741.00
2018-06-05T04:14:23.428Z,99742.05
2018-06-05T04:16:53.300Z,99746.10
2018-06-05T04:19:22.965Z,99744.73
2018-06-05T04:21:52.615Z,99749.13
2018-06-05T04:24:22.343Z,99749.89
2018-06-05T04:26:51.976Z,99754.05
2018-06-05T04:29:21.631Z,99754.17
2018-06-05T04:31:51.328Z,99750.70
2018-06-05T04:34:20.974Z,99754.67
2018-06-05T04:36:50.659Z,99752.50
2018-06-05T04:39:20.375Z,99754.41
2018-06-05T04:41:50.092Z,99754.31
2018-06-05T04:44:19.763Z,99757.95
2018-06-05T04:46:49.649Z,99758.69
2018-06-05T04:49:19.316Z,99757.59
2018-06-05T04:51:48.979Z,99750.61
2018-06-05T04:54:18.690Z,99754.55
2018-06-05T04:56:48.337Z,99754.31
2018-06-05T04:59:18.004Z,99752.96
2018-06-05T05:01:47.715Z,99749.26
2018-06-05T05:04:17.433Z,99745.42
2018-06-05T05:06:47.150Z,99753.58
2018-06-05T05:09:17.957Z,99748.17
2018-06-05T05:11:47.636Z,99757.23
2018-06-05T05:14:17.324Z,99759.39
2018-06-05T05:16:47.132Z,99765.84
2018-06-05T05:19:16.811Z,99763.34
2018-06-05T05:21:46.463Z,99760.44
2018-06-05T05:24:16.153Z,99761.61
2018-06-05T05:26:45.845Z,99757.78
2018-06-05T05:29:15.511Z,99755.84
2018-06-05T05:31:45.247Z,99758.42
2018-06-05T05:34:14.971Z,99758.75
2018-06-05T05:36:45.137Z,99767.28
2018-06-05T05:39:14.920Z,99763.62
2018-06-05T05:41:44.710Z,99771.83
2018-06-05T05:44:14.506Z,99773.06
2018-06-05T05:46:44.333Z,99771.10
2018-06-05T05:49:14.074Z,99772.75
2018-06-05T05:51:44.017Z,99771.72
2018-06-05T05:54:14.521Z,99772.75
2018-06-05T05:56:44.212Z,99768.10
2018-06-05T05:59:13.876Z,99772.27
2018-06-05T06:01:43.598Z,99773.52
2018-06-05T06:04:13.270Z,99774.87
2018-06-05T06:06:42.930Z,99776.92
2018-06-05T06:09:12.659Z,99781.60
2018-06-05T06:11:42.640Z,99779.13
2018-06-05T06:14:12.363Z,99786.63
2018-06-05T06:16:42.049Z,99781.14
2018-06-05T06:19:11.718Z,99784.34
2018-06-05T06:21:41.412Z,99779.67
2018-06-05T06:24:11.152Z,99787.59
2018-06-05T06:26:40.801Z,99789.08
2018-06-05T06:29:10.504Z,99786.89
2018-06-05T06:31:40.161Z,99787.20
2018-06-05T06:34:09.825Z,99780.25
2018-06-05T06:36:39.532Z,99790.83
2018-06-05T06:39:10.444Z,99791.04
2018-06-05T06:41:40.148Z,99802.18
2018-06-05T06:44:09.799Z,99800.22
2018-06-05T06:46:39.461Z,99796.05
2018-06-05T06:49:09.185Z,99798.44
2018-06-05T06:51:38.841Z,99801.69
2018-06-05T06:54:08.545Z,99800.94
2018-06-05T06:56:38.290Z,99802.30
2018-06-05T06:59:07.947Z,99797.53
2018-06-05T07:01:37.587Z,99805.12
2018-06-05T07:04:07.305Z,99803.37
2018-06-05T07:06:37.073Z,99806.14
2018-06-05T07:09:08.703Z,99804.80
2018-06-05T07:11:38.390Z,99814.48
2018-06-05T07:14:08.136Z,99810.54
2018-06-05T07:16:37.795Z,99816.38
2018-06-05T07:19:07.449Z,99809.02
2018-06-05T07:21:37.141Z,99810.87
2018-06-05T07:24:06.822Z,99807.14
2018-06-05T07:26:36.480Z,99813.50
2018-06-05T07:29:06.188Z,99812.65
2018-06-05T07:31:35.841Z,99811.41
2018-06-05T07:34:05.531Z,99812.15
2018-06-05T07:36:35.252Z,99815.25
2018-06-05T07:39:07.239Z,99816.09
2018-06-05T07:41:36.971Z,99811.62
2018-06-05T07:44:06.647Z,99816.30
2018-06-05T07:46:36.372Z,99819.73
2018-06-05T07:49:06.020Z,99817.13
2018-06-05T07:51:35.684Z,99820.44
2018-06-05T07:54:05.388Z,99815.99
2018-06-05T07:56:35.052Z,99821.91
2018-06-05T07:59:04.736Z,99819.52
2018-06-05T08:01:34.479Z,99822.01
2018-06-05T08:04:04.579Z,99821.41
2018-06-05T08:06:34.283Z,99820.44
2018-06-05T08:09:04.187Z,99822.01
2018-06-05T08:11:33.855Z,99819.94
2018-06-05T08:14:03.589Z,99823.45
2018-06-05T08:16:33.245Z,99826.69
2018-06-05T08:19:02.935Z,99822.64
2018-06-05T08:21:32.634Z,99828.80
2018-06-05T08:24:02.329Z,99826.69
2018-06-05T08:26:45.958Z,99837.52
2018-06-05T08:29:15.620Z,99832.42
2018-06-05T08:31:45.324Z,99841.48
2018-06-05T08:34:15.081Z,99839.63
2018-06-05T08:36:44.851Z,99839.83
2018-06-05T08:39:14.594Z,99841.80
2018-06-05T08:41:44.264Z,99842.44
2018-06-05T08:44:14.019Z,99839.52
2018-06-05T08:46:44.245Z,99847.51
2018-06-05T08:49:13.931Z,99853.52
2018-06-05T08:51:43.612Z,99856.15
2018-06-05T08:54:13.378Z,99851.91
2018-06-05T08:56:43.048Z,99853.53
2018-06-05T08:59:12.707Z,99855.31
2018-06-05T09:01:42.412Z,99851.56
2018-06-05T09:04:12.116Z,99855.02
2018-06-05T09:06:41.795Z,99862.92
2018-06-05T09:09:11.553Z,99853.83
2018-06-05T09:11:41.213Z,99851.34
2018-06-05T09:14:10.888Z,99847.47
2018-06-05T09:16:40.637Z,99850.98
2018-06-05T09:19:10.283Z,99852.00
2018-06-05T09:21:39.964Z,99854.19
2018-06-05T09:24:09.674Z,99859.66
2018-06-05T09:26:39.343Z,99859.17
2018-06-05T09:29:09.059Z,99858.85
2018-06-05T09:31:38.740Z,99867.52
2018-06-05T09:34:08.448Z,99869.17
2018-06-05T09:36:38.214Z,99865.94
2018-06-05T09:39:09.287Z,99868.23
2018-06-05T09:41:38.987Z,99870.22
2018-06-05T09:44:08.691Z,99864.78
2018-06-05T09:46:38.431Z,99871.50
2018-06-05T09:49:08.116Z,99864.80
2018-06-05T09:51:37.767Z,99863.84
2018-06-05T09:54:07.933Z,99864.31
2018-06-05T09:56:37.608Z,99868.22
2018-06-05T09:59:07.385Z,99865.80
2018-06-05T10:01:37.035Z,99873.70
2018-06-05T10:04:06.727Z,99870.55
2018-06-05T10:06:36.826Z,99877.11
2018-06-05T10:09:07.689Z,99879.37
2018-06-05T10:11:37.451Z,99881.08
2018-06-05T10:14:07.122Z,99875.84
2018-06-05T10:16:36.781Z,99869.60
2018-06-05T10:19:06.544Z,99873.00
2018-06-05T10:21:36.232Z,99864.87
2018-06-05T10:24:06.008Z,99870.03
2018-06-05T10:26:35.701Z,99868.17
2018-06-05T10:29:05.443Z,99867.11
2018-06-05T10:31:35.329Z,99857.48
2018-06-05T10:34:04.995Z,99862.13
2018-06-05T10:36:34.695Z,99865.48
2018-06-05T10:39:06.081Z,99861.73
2018-06-05T10:41:35.750Z,99862.69
2018-06-05T10:44:05.464Z,99861.67
2018-06-05T10:46:35.179Z,99864.90
2018-06-05T10:49:04.852Z,99869.56
2018-06-05T10:51:34.554Z,99864.44
2018-06-05T10:54:04.260Z,99864.17
2018-06-05T10:56:34.077Z,99862.10
2018-06-05T10:59:03.749Z,99863.00
2018-06-05T11:01:33.471Z,99865.07
2018-06-05T11:04:03.194Z,99868.14
2018-06-05T11:06:32.856Z,99860.08
2018-06-05T11:09:02.591Z,99857.44
2018-06-05T11:11:32.267Z,99853.67
2018-06-05T11:14:01.997Z,99858.39
2018-06-05T11:16:31.700Z,99853.23
2018-06-05T11:19:01.344Z,99847.03
2018-06-05T11:21:31.005Z,99849.67
2018-06-05T11:24:00.722Z,99849.08
2018-06-05T11:26:30.389Z,99847.16
2018-06-05T11:29:00.304Z,99837.13
2018-06-05T11:31:29.965Z,99841.41
2018-06-05T11:33:59.622Z,99840.31
2018-06-05T11:36:29.344Z,99838.25
2018-06-05T11:38:59.004Z,99839.58
2018-06-05T11:41:28.651Z,99837.50
2018-06-05T11:43:58.343Z,99829.78
2018-06-05T11:46:27.988Z,99828.73
2018-06-05T11:48:57.647Z,99829.91
2018-06-05T11:51:27.470Z,99819.68
2018-06-05T11:53:57.176Z,99818.31
2018-06-05T11:56:27.164Z,99814.36
2018-06-05T11:58:56.811Z,99813.77
2018-06-05T12:01:26.476Z,99813.42
2018-06-05T12:03:56.188Z,99811.81
2018-06-05T12:06:25.833Z,99809.13
2018-06-05T12:08:55.580Z,99801.78
2018-06-05T12:11:25.247Z,99810.16
2018-06-05T12:13:54.867Z,99810.70
2018-06-05T12:16:24.543Z,99807.63
2018-06-05T12:18:54.199Z,99806.51
2018-06-05T12:21:23.875Z,99801.11
2018-06-05T12:23:53.562Z,99789.70
2018-06-05T12:26:23.224Z,99784.83
2018-06-05T12:28:52.891Z,99787.86
2018-06-05T12:31:22.615Z,99779.48
2018-06-05T12:33:52.281Z,99783.64
2018-06-05T12:36:21.944Z,99781.02
2018-06-05T12:38:51.636Z,99776.70
2018-06-05T12:41:21.263Z,99775.69
2018-06-05T12:43:50.959Z,99774.02
2018-06-05T12:46:20.640Z,99776.77
2018-06-05T12:48:50.312Z,99778.80
2018-06-05T12:51:19.963Z,99775.35
2018-06-05T12:53:49.671Z,99779.72
2018-06-05T12:56:19.311Z,99767.86
2018-06-05T12:58:48.968Z,99775.33
2018-06-05T13:01:18.883Z,99774.90
2018-06-05T13:03:48.533Z,99772.55
2018-06-05T13:06:18.288Z,99780.23
2018-06-05T13:08:47.936Z,99774.63
2018-06-05T13:11:17.592Z,99772.26
2018-06-05T13:13:47.268Z,99771.45
2018-06-05T13:16:16.946Z,99775.92
2018-06-05T13:18:46.591Z,99771.94
2018-06-05T13:21:16.308Z,99770.88
2018-06-05T13:23:45.996Z,99770.06
2018-06-05T13:26:15.660Z,99772.64
2018-06-05T13:28:45.351Z,99762.56
2018-06-05T13:31:15.119Z,99759.94
2018-06-05T13:33:44.785Z,99755.59
2018-06-05T13:36:14.515Z,99764.69
2018-06-05T13:38:44.160Z,99761.69
2018-06-05T13:41:13.815Z,99755.54
2018-06-05T13:43:43.561Z,99757.20
2018-06-05T13:46:13.217Z,99753.94
2018-06-05T13:48:42.861Z,99756.12
2018-06-05T13:51:12.551Z,99751.80
2018-06-05T13:53:42.390Z,99759.25
2018-06-05T13:56:12.127Z,99755.52
2018-06-05T13:58:41.765Z,99755.14
2018-06-05T14:01:11.413Z,99754.53
2018-06-05T14:03:41.245Z,99757.22
2018-06-05T14:06:10.991Z,99753.12
2018-06-05T14:08:40.656Z,99747.97
2018-06-05T14:11:10.352Z,99754.90
2018-06-05T14:13:40.050Z,99749.78
2018-06-05T14:16:09.755Z,99742.66
2018-06-05T14:18:39.431Z,99737.70
2018-06-05T14:21:09.091Z,99737.13
2018-06-05T14:23:38.747Z,99736.91
2018-06-05T14:26:08.444Z,99735.13
2018-06-05T14:28:38.101Z,99741.12
2018-06-05T14:31:07.768Z,99736.06
2018-06-05T14:33:37.479Z,99739.04
2018-06-05T14:36:07.371Z,99734.70
2018-06-05T14:38:37.060Z,99733.88
2018-06-05T14:41:06.720Z,99732.23
2018-06-05T14:43:36.373Z,99734.43
2018-06-05T14:46:06.082Z,99729.63
2018-06-05T14:48:35.744Z,99726.01
2018-06-05T14:51:05.438Z,99723.13
2018-06-05T14:53:35.153Z,99723.17
2018-06-05T14:56:04.824Z,99719.03
2018-06-05T14:58:35.424Z,99713.89
2018-06-05T15:01:05.131Z,99719.39
2018-06-05T15:03:34.828Z,99722.84
2018-06-05T15:06:04.545Z,99718.27
2018-06-05T15:08:34.209Z,99719.17
2018-06-05T15:11:03.886Z,99714.23
2018-06-05T15:13:33.535Z,99720.02
2018-06-05T15:16:03.268Z,99720.74
2018-06-05T15:18:32.935Z,99716.94
2018-06-05T15:21:02.608Z,99711.73
2018-06-05T15:23:32.319Z,99714.13
2018-06-05T15:26:01.997Z,99715.20
2018-06-05T15:28:31.654Z,99718.78
2018-06-05T15:31:01.373Z,99715.53
2018-06-05T15:33:31.055Z,99717.61
2018-06-05T15:36:00.728Z,99713.53
2018-06-05T15:38:30.907Z,99708.03
2018-06-05T15:41:00.574Z,99705.64
2018-06-05T15:43:30.275Z,99705.64
2018-06-05T15:45:59.970Z,99713.91
2018-06-05T15:48:29.923Z,99703.42
2018-06-05T15:50:59.616Z,99701.32
2018-06-05T15:53:29.296Z,99699.51
2018-06-05T15:55:58.971Z,99697.25
2018-06-05T15:58:28.664Z,99700.71
2018-06-05T16:00:58.315Z,99697.91
2018-06-05T16:03:27.988Z,99693.52
2018-06-05T16:05:57.815Z,99695.47
2018-06-05T16:08:27.471Z,99693.73
2018-06-05T16:10:57.187Z,99690.52
2018-06-05T16:13:26.855Z,99681.20
2018-06-05T16:15:56.516Z,99683.58
2018-06-05T16:18:26.211Z,99682.25
2018-06-05T16:20:55.868Z,99684.81
2018-06-05T16:23:25.512Z,99676.97
2018-06-05T16:25:55.224Z,99683.66
2018-06-05T16:28:24.883Z,99685.28
2018-06-05T16:30:54.545Z,99676.22
2018-06-05T16:33:24.289Z,99674.00
2018-06-05T16:35:53.951Z,99680.52
2018-06-05T16:38:23.631Z,99672.30
2018-06-05T16:40:53.458Z,99669.66
2018-06-05T16:43:23.121Z,99673.39
2018-06-05T16:45:52.776Z,99678.29
2018-06-05T16:48:22.487Z,99666.36
2018-06-05T16:50:52.148Z,99669.57
2018-06-05T16:53:21.807Z,99663.73
2018-06-05T16:55:51.520Z,99668.08
2018-06-05T16:58:21.186Z,99667.34
2018-06-05T17:00:50.860Z,99665.77
2018-06-05T17:03:20.926Z,99671.44
2018-06-05T17:05:50.587Z,99673.02
2018-06-05T17:08:20.272Z,99669.04
2018-06-05T17:10:50.265Z,99666.83
2018-06-05T17:13:19.927Z,99670.15
2018-06-05T17:15:49.808Z,99668.23
2018-06-05T17:18:19.478Z,99667.17
2018-06-05T17:20:49.192Z,99669.60
2018-06-05T17:23:18.860Z,99665.37
2018-06-05T17:25:48.534Z,99672.36
2018-06-05T17:28:18.246Z,99672.56
2018-06-05T17:30:48.072Z,99676.90
2018-06-05T17:33:17.728Z,99676.85
2018-06-05T17:35:47.440Z,99673.06
2018-06-05T17:38:17.104Z,99672.97
2018-06-05T17:40:46.743Z,99674.94
2018-06-05T17:43:16.414Z,99670.63
2018-06-05T17:45:46.103Z,99676.30
2018-06-05T17:48:15.764Z,99672.97
2018-06-05T17:50:45.720Z,99668.28
2018-06-05T17:53:15.397Z,99673.07
2018-06-05T17:55:45.088Z,99669.84
2018-06-05T17:58:15.026Z,99665.41
2018-06-05T18:00:44.707Z,99672.98
2018-06-05T18:03:14.465Z,99667.43
2018-06-05T18:05:44.201Z,99675.90
2018-06-05T18:08:13.949Z,99674.14
2018-06-05T18:10:43.800Z,99676.25
2018-06-05T18:13:13.576Z,99672.67
2018-06-05T18:15:43.327Z,99676.52
2018-06-05T18:18:12.982Z,99674.80
2018-06-05T18:20:42.640Z,99668.45
2018-06-05T18:23:18.945Z,99671.38
2018-06-05T18:25:48.630Z,99675.50
2018-06-05T18:28:18.304Z,99680.00
2018-06-05T18:30:47.967Z,99677.17
2018-06-05T18:33:17.636Z,99678.63
2018-06-05T18:35:47.335Z,99686.01
2018-06-05T18:38:17.007Z,99685.33
2018-06-05T18:40:46.856Z,99685.83
2018-06-05T18:43:16.538Z,99688.63
2018-06-05T18:45:46.192Z,99691.77
2018-06-05T18:48:15.852Z,99689.23
2018-06-05T18:50:45.513Z,99687.75
2018-06-05T18:53:15.128Z,99686.07
2018-06-05T18:55:44.747Z,99691.09
2018-06-05T18:58:14.429Z,99692.41
2018-06-05T19:00:44.070Z,99692.59
2018-06-05T19:03:13.769Z,99695.01
2018-06-05T19:05:43.464Z,99696.80
2018-06-05T19:08:13.135Z,99702.94
2018-06-05T19:10:42.791Z,99701.09
2018-06-05T19:13:12.509Z,99705.80
2018-06-05T19:15:42.153Z,99706.47
2018-06-05T19:18:11.803Z,99702.78
2018-06-05T19:20:41.544Z,99707.81
2018-06-05T19:23:11.259Z,99706.78
2018-06-05T19:25:40.956Z,99717.12
2018-06-05T19:28:10.710Z,99717.94
2018-06-05T19:30:40.405Z,99721.00
2018-06-05T19:33:10.111Z,99726.47
2018-06-05T19:35:39.884Z,99727.04
2018-06-05T19:38:09.551Z,99731.79
2018-06-05T19:40:39.275Z,99731.05
2018-06-05T19:43:08.937Z,99743.09
2018-06-05T19:45:38.619Z,99737.34
2018-06-05T19:48:08.311Z,99743.81
2018-06-05T19:50:37.969Z,99750.68
2018-06-05T19:53:07.632Z,99753.17
2018-06-05T19:55:37.374Z,99756.28
2018-06-05T19:58:07.053Z,99753.27
2018-06-05T20:00:36.739Z,99758.77
2018-06-05T20:03:06.463Z,99763.00
2018-06-05T20:05:36.392Z,99761.34
2018-06-05T20:08:06.067Z,99759.90
2018-06-05T20:10:35.739Z,99766.31
2018-06-05T20:13:05.519Z,99768.95
2018-06-05T20:15:35.533Z,99769.06
2018-06-05T20:18:05.358Z,99773.55
2018-06-05T20:20:35.038Z,99782.64
2018-06-05T20:23:04.708Z,99779.37
2018-06-05T20:25:34.438Z,99779.24
2018-06-05T20:28:04.107Z,99775.17
2018-06-05T20:30:33.779Z,99785.63
2018-06-05T20:33:03.585Z,99788.19
2018-06-05T20:35:33.269Z,99787.96
2018-06-05T20:38:02.993Z,99800.45
2018-06-05T20:40:32.872Z,99796.16
2018-06-05T20:43:02.560Z,99798.03
2018-06-05T20:45:32.376Z,99803.73
2018-06-05T20:48:02.083Z,99802.66
2018-06-05T20:50:31.837Z,99802.52
2018-06-05T20:53:01.586Z,99810.05
2018-06-05T20:55:31.328Z,99810.05
2018-06-05T20:58:01.820Z,99807.21
2018-06-05T21:00:31.540Z,99816.88
2018-06-05T21:03:01.224Z,99819.00
2018-06-05T21:05:30.897Z,99821.94
2018-06-05T21:08:00.643Z,99824.38
2018-06-05T21:10:30.300Z,99824.29
2018-06-05T21:13:00.010Z,99820.43
2018-06-05T21:15:29.694Z,99824.11
2018-06-05T21:17:59.361Z,99829.22
2018-06-05T21:20:29.114Z,99828.94
2018-06-05T21:22:58.757Z,99826.16
2018-06-05T21:25:28.420Z,99826.45
2018-06-05T21:27:58.130Z,99825.41
2018-06-05T21:30:27.794Z,99825.91
2018-06-05T21:32:57.470Z,99826.23
2018-06-05T21:35:27.547Z,99825.06
2018-06-05T21:37:57.198Z,99838.25
2018-06-05T21:40:26.873Z,99841.05
2018-06-05T21:42:56.591Z,99841.30
2018-06-05T21:45:26.236Z,99839.86
2018-06-05T21:47:55.962Z,99846.09
2018-06-05T21:50:25.679Z,99843.53
2018-06-05T21:52:55.361Z,99850.64
2018-06-05T21:55:25.124Z,99856.45
2018-06-05T21:57:54.780Z,99851.78
2018-06-05T22:00:24.458Z,99855.55
2018-06-05T22:02:54.167Z,99857.71
2018-06-05T22:05:23.853Z,99855.32
2018-06-05T22:07:53.510Z,99854.69
2018-06-05T22:10:23.206Z,99859.69
2018-06-05T22:12:52.877Z,99858.63
2018-06-05T22:15:22.544Z,99857.58
2018-06-05T22:17:52.248Z,99857.69
2018-06-05T22:20:21.918Z,99859.25
2018-06-05T22:22:51.605Z,99856.13
2018-06-05T22:25:21.287Z,99859.87
2018-06-05T22:27:50.957Z,99858.08
2018-06-05T22:30:20.617Z,99855.20
2018-06-05T22:32:50.585Z,99862.23
2018-06-05T22:35:20.279Z,99859.70
2018-06-05T22:37:49.931Z,99852.55
2018-06-05T22:40:19.661Z,99850.05
2018-06-05T22:42:49.735Z,99857.61
2018-06-05T22:45:19.436Z,99856.06
2018-06-05T22:47:49.134Z,99855.76
2018-06-05T22:50:18.815Z,99851.91
2018-06-05T22:52:48.532Z,99853.20
2018-06-05T22:55:18.223Z,99851.67
2018-06-05T22:57:47.881Z,99848.20
2018-06-05T23:00:23.891Z,99846.20
2018-06-05T23:02:53.548Z,99851.44
2018-06-05T23:05:23.252Z,99846.89
2018-06-05T23:07:52.926Z,99857.25
2018-06-05T23:10:22.594Z,99860.25
2018-06-05T23:12:52.293Z,99855.03
2018-06-05T23:15:21.960Z,99860.84
2018-06-05T23:17:51.600Z,99870.79
2018-06-05T23:20:21.353Z,99867.56
2018-06-05T23:22:51.010Z,99860.25
2018-06-05T23:25:20.685Z,99860.67
2018-06-05T23:27:50.392Z,99857.99
2018-06-05T23:30:20.115Z,99863.61
2018-06-05T23:32:49.819Z,99861.27
2018-06-05T23:35:19.772Z,99862.66
2018-06-05T23:37:49.436Z,99864.01
2018-06-05T23:40:19.144Z,99859.89
2018-06-05T23:42:48.837Z,99871.94
2018-06-05T23:45:18.488Z,99868.89
2018-06-05T23:47:48.172Z,99867.56
2018-06-05T23:50:17.841Z,99866.00
2018-06-05T23:52:47.492Z,99864.01
2018-06-05T23:55:23.676Z,99866.92
2018-06-05T23:57:53.327Z,99861.13
